createdAt,value
2017-12-17T00:01:50.579Z,22.80
2017-12-17T00:04:17.191Z,17.90
2017-12-17T00:06:43.813Z,19.50
2017-12-17T00:09:10.455Z,19.10
2017-12-17T00:11:37.071Z,19.73
2017-12-17T00:14:03.687Z,20.00
2017-12-17T00:16:30.327Z,23.17
2017-12-17T00:18:56.936Z,21.67
2017-12-17T00:21:23.550Z,20.90
2017-12-17T00:23:50.369Z,24.70
2017-12-17T00:26:16.978Z,23.80
2017-12-17T00:28:43.594Z,20.87
2017-12-17T00:31:10.243Z,23.07
2017-12-17T00:33:36.868Z,21.23
2017-12-17T00:36:03.483Z,22.10
2017-12-17T00:38:30.152Z,22.83
2017-12-17T00:40:56.775Z,21.17
2017-12-17T00:43:23.401Z,19.47
2017-12-17T00:45:50.138Z,18.97
2017-12-17T00:48:16.756Z,24.00
2017-12-17T00:50:44.319Z,19.77
2017-12-17T00:53:10.959Z,21.23
2017-12-17T00:55:37.578Z,17.97
2017-12-17T00:58:04.195Z,17.80
2017-12-17T01:00:30.836Z,19.23
2017-12-17T01:02:57.448Z,20.03
2017-12-17T01:05:24.063Z,22.60
2017-12-17T01:07:50.720Z,21.60
2017-12-17T01:10:17.332Z,19.60
2017-12-17T01:12:43.956Z,20.87
2017-12-17T01:15:10.585Z,19.67
2017-12-17T01:17:37.200Z,20.03
2017-12-17T01:20:03.823Z,18.27
2017-12-17T01:22:30.559Z,21.23
2017-12-17T01:24:57.178Z,17.90
2017-12-17T01:27:23.800Z,23.20
2017-12-17T01:29:50.532Z,19.90
2017-12-17T01:32:17.154Z,21.77
2017-12-17T01:34:43.767Z,22.27
2017-12-17T01:37:10.417Z,21.03
2017-12-17T01:39:37.035Z,22.00
2017-12-17T01:42:03.650Z,26.73
2017-12-17T01:44:30.405Z,22.87
2017-12-17T01:46:57.032Z,23.87
2017-12-17T01:49:23.647Z,23.40
2017-12-17T01:51:50.296Z,27.33
2017-12-17T01:54:16.920Z,27.80
2017-12-17T01:56:43.590Z,28.30
2017-12-17T01:59:10.208Z,24.53
2017-12-17T02:01:36.831Z,28.63
2017-12-17T02:04:03.445Z,24.13
2017-12-17T02:06:30.076Z,25.40
2017-12-17T02:08:56.700Z,23.97
2017-12-17T02:11:23.333Z,22.63
2017-12-17T02:13:49.971Z,26.20
2017-12-17T02:16:16.592Z,27.30
2017-12-17T02:18:43.216Z,22.10
2017-12-17T02:21:09.864Z,26.13
2017-12-17T02:23:36.491Z,25.20
2017-12-17T02:26:03.111Z,30.27
2017-12-17T02:28:29.756Z,20.90
2017-12-17T02:30:56.379Z,20.30
2017-12-17T02:33:22.993Z,22.93
2017-12-17T02:35:49.647Z,20.17
2017-12-17T02:38:16.272Z,22.17
2017-12-17T02:40:42.884Z,23.40
2017-12-17T02:43:09.519Z,23.00
2017-12-17T02:45:36.140Z,20.00
2017-12-17T02:48:02.764Z,20.40
2017-12-17T02:50:29.399Z,16.60
2017-12-17T02:52:56.019Z,21.10
2017-12-17T02:55:25.741Z,21.67
2017-12-17T02:57:53.024Z,23.63
2017-12-17T03:00:25.313Z,17.53
2017-12-17T03:02:51.940Z,22.70
2017-12-17T03:05:18.568Z,21.13
2017-12-17T03:07:45.203Z,22.47
2017-12-17T03:10:11.851Z,20.03
2017-12-17T03:12:38.466Z,20.27
2017-12-17T03:15:05.088Z,19.63
2017-12-17T03:17:31.716Z,17.30
2017-12-17T03:19:58.335Z,20.30
2017-12-17T03:22:24.952Z,22.43
2017-12-17T03:24:51.679Z,23.00
2017-12-17T03:27:18.295Z,17.23
2017-12-17T03:29:44.918Z,19.90
2017-12-17T03:32:11.560Z,18.60
2017-12-17T03:34:38.170Z,22.67
2017-12-17T03:37:04.795Z,17.33
2017-12-17T03:39:31.527Z,23.00
2017-12-17T03:41:58.143Z,19.63
2017-12-17T03:44:24.770Z,16.97
2017-12-17T03:46:51.515Z,24.43
2017-12-17T03:49:18.135Z,20.07
2017-12-17T03:51:44.751Z,22.23
2017-12-17T03:54:11.468Z,16.87
2017-12-17T03:56:38.091Z,18.80
2017-12-17T03:59:04.715Z,19.83
2017-12-17T04:01:31.347Z,17.33
2017-12-17T04:03:57.987Z,21.63
2017-12-17T04:06:24.604Z,22.87
2017-12-17T04:08:51.327Z,19.93
2017-12-17T04:11:17.948Z,17.73
2017-12-17T04:13:44.566Z,19.77
2017-12-17T04:16:11.207Z,18.47
2017-12-17T04:18:37.825Z,20.17
2017-12-17T04:21:04.448Z,21.03
2017-12-17T04:23:31.079Z,17.97
2017-12-17T04:25:57.699Z,21.03
2017-12-17T04:28:24.314Z,21.30
2017-12-17T04:30:50.963Z,20.83
2017-12-17T04:33:17.584Z,20.57
2017-12-17T04:35:44.199Z,29.43
2017-12-17T04:38:10.827Z,21.67
2017-12-17T04:40:37.444Z,22.53
2017-12-17T04:43:04.067Z,25.90
2017-12-17T04:45:30.721Z,22.50
2017-12-17T04:47:57.335Z,20.43
2017-12-17T04:50:23.951Z,20.87
2017-12-17T04:52:50.581Z,25.23
2017-12-17T04:55:17.200Z,24.67
2017-12-17T04:57:43.823Z,23.43
2017-12-17T05:00:10.460Z,26.40
2017-12-17T05:02:37.078Z,25.63
2017-12-17T05:05:03.695Z,21.50
2017-12-17T05:07:30.331Z,22.20
2017-12-17T05:09:56.956Z,21.63
2017-12-17T05:12:23.571Z,28.13
2017-12-17T05:14:50.222Z,19.70
2017-12-17T05:17:16.833Z,23.17
2017-12-17T05:19:43.448Z,22.13
2017-12-17T05:22:10.095Z,22.40
2017-12-17T05:24:36.719Z,24.93
2017-12-17T05:27:03.339Z,23.70
2017-12-17T05:29:29.969Z,24.80
2017-12-17T05:31:56.587Z,21.47
2017-12-17T05:34:23.211Z,21.20
2017-12-17T05:36:49.856Z,31.37
2017-12-17T05:39:16.500Z,22.83
2017-12-17T05:41:43.108Z,25.77
2017-12-17T05:44:09.836Z,23.23
2017-12-17T05:46:36.452Z,27.43
2017-12-17T05:49:03.073Z,24.13
2017-12-17T05:51:29.698Z,29.53
2017-12-17T05:53:56.316Z,21.70
2017-12-17T05:56:22.940Z,25.73
2017-12-17T05:58:49.595Z,27.13
2017-12-17T06:01:16.212Z,22.87
2017-12-17T06:03:42.830Z,21.93
2017-12-17T06:06:09.480Z,25.60
2017-12-17T06:08:36.096Z,25.80
2017-12-17T06:11:02.711Z,22.47
2017-12-17T06:13:29.358Z,27.87
2017-12-17T06:15:55.971Z,24.27
2017-12-17T06:18:22.595Z,31.27
2017-12-17T06:20:49.243Z,28.17
2017-12-17T06:23:15.856Z,25.03
2017-12-17T06:25:42.467Z,26.23
2017-12-17T06:28:09.127Z,25.50
2017-12-17T06:30:35.744Z,27.87
2017-12-17T06:33:02.356Z,36.10
2017-12-17T06:35:29.027Z,24.13
2017-12-17T06:37:55.651Z,28.93
2017-12-17T06:40:22.275Z,26.43
2017-12-17T06:42:48.928Z,28.57
2017-12-17T06:45:15.543Z,26.77
2017-12-17T06:47:42.155Z,35.63
2017-12-17T06:50:08.812Z,24.50
2017-12-17T06:52:35.442Z,28.60
2017-12-17T06:55:02.062Z,24.87
2017-12-17T06:57:28.717Z,27.40
2017-12-17T06:59:55.325Z,20.97
2017-12-17T07:02:21.935Z,22.40
2017-12-17T07:04:48.567Z,29.83
2017-12-17T07:07:15.184Z,25.67
2017-12-17T07:09:41.800Z,28.73
2017-12-17T07:12:08.428Z,29.80
2017-12-17T07:14:35.053Z,25.37
2017-12-17T07:17:01.679Z,25.23
2017-12-17T07:19:28.308Z,25.70
2017-12-17T07:21:54.918Z,25.50
2017-12-17T07:24:21.530Z,31.50
2017-12-17T07:26:48.187Z,32.80
2017-12-17T07:29:14.820Z,30.93
2017-12-17T07:31:41.435Z,27.70
2017-12-17T07:34:08.064Z,30.13
2017-12-17T07:36:34.687Z,29.73
2017-12-17T07:39:01.295Z,26.47
2017-12-17T07:41:27.923Z,25.73
2017-12-17T07:43:54.552Z,28.53
2017-12-17T07:46:21.163Z,31.27
2017-12-17T07:48:47.791Z,27.87
2017-12-17T07:51:14.419Z,28.40
2017-12-17T07:53:41.032Z,28.93
2017-12-17T07:56:07.683Z,30.80
2017-12-17T07:58:34.290Z,27.50
2017-12-17T08:01:00.919Z,31.63
2017-12-17T08:03:27.567Z,25.37
2017-12-17T08:05:54.194Z,31.73
2017-12-17T08:08:20.802Z,31.03
2017-12-17T08:10:47.442Z,28.20
2017-12-17T08:13:14.058Z,33.93
2017-12-17T08:15:40.690Z,33.67
2017-12-17T08:18:07.339Z,34.00
2017-12-17T08:20:33.976Z,34.80
2017-12-17T08:23:00.607Z,30.03
2017-12-17T08:25:27.304Z,30.40
2017-12-17T08:27:53.922Z,34.87
2017-12-17T08:30:20.539Z,32.93
2017-12-17T08:32:47.171Z,33.43
2017-12-17T08:35:13.787Z,33.63
2017-12-17T08:37:40.403Z,28.70
2017-12-17T08:40:07.035Z,34.13
2017-12-17T08:42:33.648Z,35.83
2017-12-17T08:45:00.278Z,35.53
2017-12-17T08:47:26.907Z,31.10
2017-12-17T08:49:53.523Z,26.87
2017-12-17T08:52:20.144Z,34.20
2017-12-17T08:54:46.786Z,39.23
2017-12-17T08:57:13.394Z,38.47
2017-12-17T08:59:40.011Z,30.93
2017-12-17T09:02:06.647Z,33.20
2017-12-17T09:04:33.303Z,36.03
2017-12-17T09:06:59.899Z,35.73
2017-12-17T09:09:26.536Z,37.87
2017-12-17T09:11:53.155Z,33.93
2017-12-17T09:14:19.771Z,30.80
2017-12-17T09:16:46.416Z,36.70
2017-12-17T09:19:13.082Z,37.40
2017-12-17T09:21:39.692Z,31.23
2017-12-17T09:24:06.338Z,30.30
2017-12-17T09:26:32.951Z,37.30
2017-12-17T09:28:59.575Z,32.33
2017-12-17T09:31:26.225Z,32.70
2017-12-17T09:33:52.839Z,37.03
2017-12-17T09:36:19.472Z,34.70
2017-12-17T09:38:46.123Z,31.67
2017-12-17T09:41:12.739Z,38.30
2017-12-17T09:43:39.355Z,36.30
2017-12-17T09:46:05.987Z,35.97
2017-12-17T09:48:32.617Z,33.93
2017-12-17T09:50:59.227Z,35.07
2017-12-17T09:53:25.868Z,41.50
2017-12-17T09:55:52.487Z,37.30
2017-12-17T09:58:19.116Z,36.67
2017-12-17T10:00:45.755Z,36.50
2017-12-17T10:03:12.367Z,39.67
2017-12-17T10:05:39.049Z,42.60
2017-12-17T10:08:05.779Z,39.20
2017-12-17T10:10:32.395Z,36.20
2017-12-17T10:12:59.004Z,37.80
2017-12-17T10:15:25.727Z,37.77
2017-12-17T10:17:52.338Z,36.47
2017-12-17T10:20:19.543Z,35.90
2017-12-17T10:22:46.176Z,32.27
2017-12-17T10:25:12.786Z,36.40
2017-12-17T10:27:39.404Z,40.50
2017-12-17T10:30:06.035Z,32.10
2017-12-17T10:32:32.655Z,35.87
2017-12-17T10:34:59.275Z,35.30
2017-12-17T10:37:26.002Z,35.57
2017-12-17T10:39:52.617Z,37.40
2017-12-17T10:42:19.231Z,37.03
2017-12-17T10:44:45.862Z,36.43
2017-12-17T10:47:12.475Z,38.00
2017-12-17T10:49:39.087Z,33.70
2017-12-17T10:52:05.742Z,32.77
2017-12-17T10:54:32.369Z,34.80
2017-12-17T10:56:58.992Z,37.03
2017-12-17T10:59:25.623Z,34.03
2017-12-17T11:01:52.243Z,38.87
2017-12-17T11:04:18.868Z,36.83
2017-12-17T11:06:45.536Z,42.03
2017-12-17T11:09:12.153Z,33.77
2017-12-17T11:11:38.811Z,37.47
2017-12-17T11:16:38.502Z,34.43
2017-12-17T11:19:05.136Z,35.93
2017-12-17T11:21:31.756Z,38.97
2017-12-17T11:23:58.371Z,36.40
2017-12-17T11:26:24.999Z,35.07
2017-12-17T11:28:51.617Z,37.87
2017-12-17T11:31:18.226Z,35.43
2017-12-17T11:33:44.951Z,34.87
2017-12-17T11:36:11.573Z,40.00
2017-12-17T11:38:38.184Z,32.63
2017-12-17T11:41:04.839Z,44.20
2017-12-17T11:43:31.459Z,36.33
2017-12-17T11:45:58.087Z,36.67
2017-12-17T11:48:24.731Z,37.03
2017-12-17T11:50:51.373Z,37.43
2017-12-17T11:53:17.996Z,41.03
2017-12-17T11:55:44.614Z,37.53
2017-12-17T11:58:11.231Z,32.63
2017-12-17T12:00:37.851Z,40.97
2017-12-17T12:03:04.499Z,38.10
2017-12-17T12:05:31.113Z,36.83
2017-12-17T12:07:57.727Z,31.47
2017-12-17T12:10:24.355Z,30.37
2017-12-17T12:12:50.972Z,34.00
2017-12-17T12:15:17.628Z,34.47
2017-12-17T12:17:44.259Z,37.03
2017-12-17T12:20:10.889Z,30.60
2017-12-17T12:22:37.502Z,35.43
2017-12-17T12:25:04.143Z,35.70
2017-12-17T12:27:30.770Z,34.80
2017-12-17T12:29:57.482Z,32.77
2017-12-17T12:32:24.232Z,34.80
2017-12-17T12:34:50.933Z,33.13
2017-12-17T12:37:17.641Z,30.70
2017-12-17T12:39:44.420Z,37.90
2017-12-17T12:42:11.918Z,40.00
2017-12-17T12:44:38.542Z,34.93
2017-12-17T12:47:06.205Z,32.40
2017-12-17T12:49:33.069Z,34.90
2017-12-17T12:51:59.706Z,38.57
2017-12-17T12:54:27.559Z,37.20
2017-12-17T12:56:54.290Z,33.17
2017-12-17T12:59:20.911Z,37.80
2017-12-17T13:01:47.615Z,36.10
2017-12-17T13:04:14.979Z,45.40
2017-12-17T13:06:41.858Z,39.53
2017-12-17T13:09:08.632Z,37.47
2017-12-17T13:11:36.564Z,36.60
2017-12-17T13:14:03.590Z,37.30
2017-12-17T13:16:30.424Z,36.53
2017-12-17T13:18:57.846Z,39.43
2017-12-17T13:21:25.458Z,48.83
2017-12-17T13:23:53.276Z,40.97
2017-12-17T13:26:25.140Z,39.83
2017-12-17T13:28:54.060Z,34.70
2017-12-17T13:31:20.779Z,32.47
2017-12-17T13:33:47.476Z,26.17
2017-12-17T13:36:14.310Z,28.90
2017-12-17T13:38:40.935Z,29.30
2017-12-17T13:41:07.706Z,24.70
2017-12-17T13:43:34.371Z,34.53
2017-12-17T13:46:01.075Z,31.47
2017-12-17T13:48:27.791Z,32.57
2017-12-17T13:50:54.720Z,34.27
2017-12-17T13:53:21.410Z,28.53
2017-12-17T13:55:48.206Z,31.30
2017-12-17T13:58:14.855Z,28.17
2017-12-17T14:00:42.399Z,29.20
2017-12-17T14:03:09.060Z,26.60
2017-12-17T14:05:36.811Z,27.00
2017-12-17T14:08:03.476Z,27.10
2017-12-17T14:10:34.335Z,28.07
2017-12-17T14:13:00.964Z,30.30
2017-12-17T14:15:27.589Z,30.90
2017-12-17T14:17:54.870Z,31.57
2017-12-17T14:20:22.739Z,39.10
2017-12-17T14:22:49.356Z,30.73
2017-12-17T14:25:15.980Z,37.23
2017-12-17T14:27:42.606Z,37.67
2017-12-17T14:30:09.226Z,29.00
2017-12-17T14:32:35.840Z,34.77
2017-12-17T14:35:02.563Z,41.53
2017-12-17T14:37:29.194Z,35.17
2017-12-17T14:39:55.811Z,33.10
2017-12-17T14:42:22.537Z,35.83
2017-12-17T14:44:49.156Z,35.23
2017-12-17T14:47:15.766Z,33.30
2017-12-17T14:49:42.399Z,29.33
2017-12-17T14:52:09.015Z,30.60
2017-12-17T14:54:35.637Z,35.33
2017-12-17T14:57:05.467Z,30.47
2017-12-17T14:59:32.087Z,30.53
2017-12-17T15:01:58.699Z,28.70
2017-12-17T15:04:25.347Z,27.77
2017-12-17T15:06:51.986Z,26.80
2017-12-17T15:09:18.602Z,28.47
2017-12-17T15:11:45.330Z,32.20
2017-12-17T15:14:11.936Z,31.47
2017-12-17T15:16:38.563Z,33.80
2017-12-17T15:19:05.207Z,30.60
2017-12-17T15:21:31.829Z,30.40
2017-12-17T15:23:58.442Z,31.97
2017-12-17T15:26:25.083Z,29.80
2017-12-17T15:28:51.698Z,28.83
2017-12-17T15:31:18.318Z,30.80
2017-12-17T15:33:44.956Z,32.47
2017-12-17T15:36:11.588Z,30.13
2017-12-17T15:38:38.205Z,28.17
2017-12-17T15:41:04.839Z,26.10
2017-12-17T15:43:31.460Z,28.60
2017-12-17T15:45:58.078Z,25.40
2017-12-17T15:48:24.711Z,25.80
2017-12-17T15:50:51.328Z,29.80
2017-12-17T15:53:17.972Z,29.60
2017-12-17T15:55:44.615Z,28.40
2017-12-17T15:58:11.233Z,25.03
2017-12-17T16:00:37.842Z,23.43
2017-12-17T16:03:04.502Z,23.70
2017-12-17T16:05:31.146Z,26.30
2017-12-17T16:07:57.761Z,28.00
2017-12-17T16:10:24.399Z,33.03
2017-12-17T16:12:51.011Z,34.80
2017-12-17T16:15:17.648Z,41.20
2017-12-17T16:17:44.383Z,35.70
2017-12-17T16:20:10.998Z,39.60
2017-12-17T16:22:37.613Z,36.40
2017-12-17T16:25:04.347Z,37.17
2017-12-17T16:27:30.959Z,37.00
2017-12-17T16:29:57.602Z,35.23
2017-12-17T16:32:24.390Z,28.17
2017-12-17T16:34:50.956Z,33.53
2017-12-17T16:37:17.592Z,35.93
2017-12-17T16:39:44.225Z,28.37
2017-12-17T16:42:10.840Z,36.90
2017-12-17T16:44:37.459Z,34.73
2017-12-17T16:47:04.118Z,35.17
2017-12-17T16:49:30.735Z,35.90
2017-12-17T16:51:57.352Z,30.57
2017-12-17T16:54:24.081Z,33.70
2017-12-17T16:56:50.695Z,34.00
2017-12-17T16:59:17.311Z,30.67
2017-12-17T17:01:44.036Z,34.20
2017-12-17T17:04:10.650Z,31.23
2017-12-17T17:06:37.263Z,26.07
2017-12-17T17:09:03.892Z,33.63
2017-12-17T17:11:31.731Z,27.87
2017-12-17T17:13:58.347Z,30.40
2017-12-17T17:16:24.991Z,30.67
2017-12-17T17:18:51.608Z,31.43
2017-12-17T17:21:18.224Z,27.33
2017-12-17T17:23:44.946Z,27.30
2017-12-17T17:26:11.562Z,25.20
2017-12-17T17:28:38.183Z,29.97
2017-12-17T17:31:05.076Z,26.13
2017-12-17T17:33:31.933Z,25.60
2017-12-17T17:35:58.662Z,27.03
2017-12-17T17:38:25.304Z,29.23
2017-12-17T17:40:51.924Z,26.60
2017-12-17T17:43:18.540Z,26.43
2017-12-17T17:45:45.167Z,23.13
2017-12-17T17:48:11.783Z,30.93
2017-12-17T17:50:38.399Z,25.23
2017-12-17T17:53:05.039Z,28.50
2017-12-17T17:55:31.659Z,29.57
2017-12-17T17:57:58.275Z,31.53
2017-12-17T18:00:24.927Z,26.77
2017-12-17T18:02:51.550Z,27.37
2017-12-17T18:05:18.164Z,25.33
2017-12-17T18:07:44.792Z,28.57
2017-12-17T18:10:11.407Z,26.80
2017-12-17T18:12:38.023Z,26.47
2017-12-17T18:15:04.664Z,26.90
2017-12-17T18:17:31.275Z,23.97
2017-12-17T18:19:57.897Z,23.50
2017-12-17T18:22:24.539Z,21.40
2017-12-17T18:24:51.157Z,25.90
2017-12-17T18:27:17.777Z,20.70
2017-12-17T18:29:44.435Z,24.80
2017-12-17T18:32:11.056Z,21.60
2017-12-17T18:34:37.674Z,20.17
2017-12-17T18:37:04.324Z,15.13
2017-12-17T18:39:30.946Z,21.03
2017-12-17T18:41:57.563Z,17.63
2017-12-17T18:44:24.198Z,22.97
2017-12-17T18:46:50.815Z,18.10
2017-12-17T18:49:20.611Z,17.43
2017-12-17T18:51:47.239Z,16.33
2017-12-17T18:54:13.860Z,16.90
2017-12-17T18:56:40.472Z,15.17
2017-12-17T18:59:08.224Z,16.47
2017-12-17T19:01:34.856Z,14.77
2017-12-17T19:04:01.472Z,11.17
2017-12-17T19:06:28.207Z,11.50
2017-12-17T19:08:54.811Z,14.43
2017-12-17T19:11:21.422Z,14.57
2017-12-17T19:13:48.070Z,13.97
2017-12-17T19:16:14.684Z,11.17
2017-12-17T19:18:41.296Z,14.20
2017-12-17T19:21:07.979Z,13.77
2017-12-17T19:23:40.267Z,12.37
2017-12-17T19:26:06.908Z,14.50
2017-12-17T19:28:33.559Z,13.30
2017-12-17T19:31:00.182Z,15.20
2017-12-17T19:33:26.807Z,14.80
2017-12-17T19:35:53.430Z,14.83
2017-12-17T19:38:20.043Z,13.20
2017-12-17T19:40:46.651Z,14.10
2017-12-17T19:43:13.290Z,14.17
2017-12-17T19:45:39.920Z,14.33
2017-12-17T19:48:06.519Z,14.83
2017-12-17T19:50:33.244Z,15.60
2017-12-17T19:52:59.864Z,19.90
2017-12-17T19:55:26.495Z,22.03
2017-12-17T19:57:53.128Z,15.80
2017-12-17T20:00:19.738Z,21.90
2017-12-17T20:02:46.351Z,14.47
2017-12-17T20:05:12.984Z,14.07
2017-12-17T20:07:39.596Z,18.10
2017-12-17T20:10:06.219Z,13.20
2017-12-17T20:12:32.912Z,14.77
2017-12-17T20:14:59.531Z,12.77
2017-12-17T20:17:26.143Z,19.27
2017-12-17T20:19:52.775Z,18.83
2017-12-17T20:22:19.386Z,16.57
2017-12-17T20:24:46.003Z,13.87
2017-12-17T20:27:12.635Z,17.40
2017-12-17T20:29:39.263Z,15.80
2017-12-17T20:32:05.874Z,14.10
2017-12-17T20:34:32.499Z,12.57
2017-12-17T20:36:59.129Z,25.43
2017-12-17T20:39:26.227Z,20.13
2017-12-17T20:41:52.922Z,14.90
2017-12-17T20:44:19.562Z,12.20
2017-12-17T20:46:46.171Z,16.20
2017-12-17T20:49:12.823Z,11.10
2017-12-17T20:51:39.460Z,12.17
2017-12-17T20:54:06.075Z,12.53
2017-12-17T20:56:33.077Z,11.33
2017-12-17T20:58:59.706Z,9.13
2017-12-17T21:01:26.331Z,11.63
2017-12-17T21:03:52.956Z,12.03
2017-12-17T21:06:19.691Z,14.17
2017-12-17T21:08:46.307Z,13.10
2017-12-17T21:11:13.072Z,17.70
2017-12-17T21:13:39.683Z,12.13
2017-12-17T21:16:06.291Z,11.53
2017-12-17T21:18:32.919Z,10.80
2017-12-17T21:20:59.543Z,10.90
2017-12-17T21:23:26.151Z,12.03
2017-12-17T21:25:52.804Z,9.30
2017-12-17T21:28:19.416Z,13.20
2017-12-17T21:30:46.040Z,9.50
2017-12-17T21:33:12.663Z,9.90
2017-12-17T21:35:39.275Z,8.83
2017-12-17T21:38:05.892Z,12.10
2017-12-17T21:40:32.536Z,11.53
2017-12-17T21:42:59.144Z,9.30
2017-12-17T21:45:25.755Z,7.00
2017-12-17T21:47:52.406Z,10.07
2017-12-17T21:50:19.603Z,8.50
2017-12-17T21:52:46.211Z,9.70
2017-12-17T21:55:12.855Z,7.80
2017-12-17T21:57:39.463Z,8.60
2017-12-17T22:00:06.081Z,10.20
2017-12-17T22:02:32.706Z,9.80
2017-12-17T22:04:59.311Z,7.67
2017-12-17T22:07:27.906Z,8.03
2017-12-17T22:09:54.540Z,8.27
2017-12-17T22:12:21.163Z,10.70
2017-12-17T22:14:47.771Z,9.17
2017-12-17T22:17:15.348Z,9.77
2017-12-17T22:19:41.955Z,10.47
2017-12-17T22:22:08.560Z,9.67
2017-12-17T22:24:35.209Z,10.07
2017-12-17T22:27:01.841Z,10.57
2017-12-17T22:29:28.463Z,9.00
2017-12-17T22:31:55.083Z,9.27
2017-12-17T22:34:21.716Z,9.00
2017-12-17T22:36:48.326Z,9.20
2017-12-17T22:39:14.967Z,9.73
2017-12-17T22:41:41.584Z,10.30
2017-12-17T22:44:10.113Z,8.80
2017-12-17T22:46:36.731Z,8.50
2017-12-17T22:49:03.355Z,7.67
2017-12-17T22:51:29.962Z,9.47
2017-12-17T22:53:56.599Z,8.00
2017-12-17T22:56:23.207Z,6.63
2017-12-17T22:58:49.835Z,6.20
2017-12-17T23:01:16.451Z,9.03
2017-12-17T23:03:43.065Z,9.03
2017-12-17T23:06:09.679Z,5.90
2017-12-17T23:08:36.295Z,7.70
2017-12-17T23:11:02.907Z,7.30
2017-12-17T23:13:29.519Z,6.20
2017-12-17T23:15:56.139Z,6.07
2017-12-17T23:18:22.767Z,6.57
2017-12-17T23:20:49.376Z,6.27
2017-12-17T23:23:15.993Z,6.70
2017-12-17T23:25:42.603Z,7.90
2017-12-17T23:28:09.207Z,7.73
2017-12-17T23:30:38.619Z,8.30
2017-12-17T23:33:05.231Z,7.03
2017-12-17T23:35:31.927Z,9.07
2017-12-17T23:37:58.575Z,11.93
2017-12-17T23:40:25.197Z,7.30
2017-12-17T23:42:51.798Z,8.57
2017-12-17T23:45:18.444Z,8.07
2017-12-17T23:47:45.051Z,7.97
2017-12-17T23:50:11.666Z,7.10
2017-12-17T23:52:38.386Z,7.23
2017-12-17T23:55:04.993Z,9.97
2017-12-17T23:57:31.611Z,6.60
2017-12-17T23:59:58.258Z,8.90
